Time;durP1;ratioP1;P1;durP2;ratioP2;P2;SDS_P1;SDS_P2;PMS_P1;PMS_P2;Temp;Humidity;BMP_temperature;BMP_pressure;BME280_temperature;BME280_humidity;BME280_pressure;Samples;Min_cycle;Max_cycle;Signal;HPM_P1;HPM_P2
2020/12/14 00:02:14;;;;;;;2.80;0.90;;;;;;;6.57;100.00;100587.22;5046103;28;20208;-76
2020/12/14 00:04:40;;;;;;;2.43;0.77;;;;;;;6.52;100.00;100592.78;5050467;28;20188;-75
2020/12/14 00:07:06;;;;;;;2.10;0.33;;;;;;;6.63;100.00;100585.13;5046375;28;20448;-75
2020/12/14 00:09:32;;;;;;;2.97;0.80;;;;;;;6.64;100.00;100581.34;5047171;28;20175;-75
2020/12/14 00:11:58;;;;;;;2.40;0.60;;;;;;;6.71;100.00;100565.53;5042629;28;20475;-75
2020/12/14 00:14:24;;;;;;;2.03;0.30;;;;;;;6.64;100.00;100571.41;5031152;28;20818;-75
2020/12/14 00:16:49;;;;;;;2.27;0.47;;;;;;;6.72;100.00;100567.06;5025968;28;20446;-74
2020/12/14 00:19:15;;;;;;;2.13;0.30;;;;;;;6.77;100.00;100575.69;5025988;28;20875;-75
2020/12/14 00:21:40;;;;;;;2.40;0.50;;;;;;;6.80;100.00;100575.03;5032263;28;20211;-74
2020/12/14 00:24:06;;;;;;;3.30;0.70;;;;;;;6.82;100.00;100575.47;5031627;28;20276;-75
2020/12/14 00:26:31;;;;;;;2.50;0.60;;;;;;;6.91;100.00;100584.19;5025729;28;20184;-76
2020/12/14 00:28:58;;;;;;;3.70;0.57;;;;;;;6.85;100.00;100587.41;5030221;28;20199;-75
2020/12/14 00:31:23;;;;;;;3.43;0.73;;;;;;;6.85;100.00;100595.44;5028748;28;20200;-75
2020/12/14 00:33:49;;;;;;;1.77;0.33;;;;;;;6.77;100.00;100602.47;5030378;28;20867;-75
2020/12/14 00:36:14;;;;;;;3.40;0.50;;;;;;;6.80;100.00;100592.97;5028809;28;20657;-76
2020/12/14 00:38:40;;;;;;;3.33;0.87;;;;;;;6.76;100.00;100600.88;5027628;28;20199;-75
2020/12/14 00:41:06;;;;;;;3.07;1.27;;;;;;;6.85;100.00;100592.78;5025142;28;20211;-76
2020/12/14 00:43:32;;;;;;;3.27;0.50;;;;;;;6.82;100.00;100604.91;5009908;28;20211;-77
2020/12/14 00:45:58;;;;;;;4.03;0.97;;;;;;;6.74;100.00;100603.09;5024963;28;20948;-76
2020/12/14 00:48:23;;;;;;;4.43;0.97;;;;;;;6.68;100.00;100604.41;5025702;28;20493;-75
2020/12/14 00:50:49;;;;;;;2.07;0.57;;;;;;;6.70;100.00;100602.19;5027786;28;20710;-75
2020/12/14 00:53:14;;;;;;;1.77;0.57;;;;;;;6.77;100.00;100583.72;5029987;28;20695;-75
2020/12/14 00:55:40;;;;;;;2.70;0.50;;;;;;;6.79;100.00;100599.44;5030940;28;20226;-77
2020/12/14 00:58:06;;;;;;;3.50;0.67;;;;;;;6.94;100.00;100596.13;5031288;28;20287;-74
2020/12/14 01:00:32;;;;;;;4.20;0.73;;;;;;;6.89;100.00;100599.78;5023529;28;20306;-75
2020/12/14 01:02:58;;;;;;;2.47;0.50;;;;;;;6.89;100.00;100594.44;5032174;28;20176;-75
2020/12/14 01:05:23;;;;;;;2.60;0.70;;;;;;;6.67;100.00;100592.16;5017616;28;20539;-74
2020/12/14 01:07:49;;;;;;;2.70;0.50;;;;;;;6.83;100.00;100609.13;5032465;28;20179;-75
2020/12/14 01:10:15;;;;;;;2.90;0.87;;;;;;;6.63;100.00;100609.19;5022589;28;20204;-75
2020/12/14 01:12:40;;;;;;;2.03;0.50;;;;;;;6.76;100.00;100614.25;5029660;28;20450;-75
2020/12/14 01:15:06;;;;;;;3.03;0.73;;;;;;;6.62;100.00;100608.41;5022982;28;20230;-74
2020/12/14 01:17:32;;;;;;;3.20;0.80;;;;;;;6.58;100.00;100610.16;5031433;28;20188;-75
2020/12/14 01:19:57;;;;;;;4.60;1.10;;;;;;;6.60;100.00;100596.50;5022497;28;20283;-75
2020/12/14 01:22:23;;;;;;;3.00;0.70;;;;;;;6.64;100.00;100586.69;5025122;28;20550;-74
2020/12/14 01:24:49;;;;;;;2.90;0.73;;;;;;;6.79;100.00;100584.19;5023343;28;20188;-75
2020/12/14 01:27:14;;;;;;;4.40;1.20;;;;;;;6.79;100.00;100572.69;5032123;28;20211;-75
2020/12/14 01:29:40;;;;;;;4.80;0.80;;;;;;;6.93;100.00;100549.84;5027512;28;20572;-74
2020/12/14 01:32:05;;;;;;;2.90;0.77;;;;;;;6.79;100.00;100544.03;5028652;28;20180;-75
2020/12/14 01:34:31;;;;;;;2.63;0.43;;;;;;;6.88;100.00;100533.22;5026576;28;20195;-75
2020/12/14 01:36:56;;;;;;;2.77;1.00;;;;;;;6.91;100.00;100530.66;5030405;28;20184;-76
2020/12/14 01:39:22;;;;;;;4.60;0.93;;;;;;;6.79;100.00;100511.16;5030394;28;20267;-75
2020/12/14 01:41:47;;;;;;;3.97;0.90;;;;;;;6.89;100.00;100508.03;5030282;28;20676;-75
2020/12/14 01:44:13;;;;;;;2.93;0.93;;;;;;;6.89;100.00;100503.44;5002160;28;20195;-74
2020/12/14 01:46:42;;;;;;;2.50;0.53;;;;;;;6.73;100.00;100513.25;5023227;28;20172;-76
2020/12/14 01:49:09;;;;;;;3.50;0.60;;;;;;;6.73;100.00;100505.22;5029729;28;20176;-74
2020/12/14 01:51:34;;;;;;;2.23;0.33;;;;;;;6.87;100.00;100502.25;5028043;28;20546;-74
2020/12/14 01:54:08;;;;;;;2.03;0.43;;;;;;;6.82;100.00;100508.56;5022505;28;20594;-75
2020/12/14 01:56:33;;;;;;;3.43;0.93;;;;;;;6.87;100.00;100508.34;5028751;28;20935;-74
2020/12/14 01:58:59;;;;;;;2.10;0.43;;;;;;;6.39;100.00;100500.22;5024518;28;20449;-75
2020/12/14 02:01:24;;;;;;;2.53;0.50;;;;;;;6.55;100.00;100503.84;5017973;28;20236;-76
2020/12/14 02:03:50;;;;;;;2.57;0.53;;;;;;;6.68;100.00;100502.75;5027997;28;20648;-74
2020/12/14 02:06:16;;;;;;;1.73;0.30;;;;;;;6.64;100.00;100509.13;5012402;28;20268;-74
2020/12/14 02:08:42;;;;;;;3.07;0.70;;;;;;;6.76;100.00;100506.44;5024059;28;20230;-75
2020/12/14 02:11:07;;;;;;;2.30;0.57;;;;;;;6.78;100.00;100498.88;5026775;28;20492;-75
2020/12/14 02:13:33;;;;;;;2.37;0.53;;;;;;;6.73;100.00;100494.53;5029305;28;20278;-79
2020/12/14 02:15:58;;;;;;;3.60;0.73;;;;;;;6.82;100.00;100484.50;5028014;28;20180;-75
2020/12/14 02:18:24;;;;;;;2.97;0.73;;;;;;;6.75;100.00;100486.94;5029079;28;20520;-74
2020/12/14 02:20:50;;;;;;;2.90;0.80;;;;;;;6.71;100.00;100486.06;5023051;28;20219;-74
2020/12/14 02:23:15;;;;;;;2.37;0.60;;;;;;;6.63;100.00;100488.81;5028799;28;20194;-76
2020/12/14 02:25:41;;;;;;;3.27;1.00;;;;;;;6.54;100.00;100498.84;5018804;28;20435;-76
2020/12/14 02:28:26;;;;;;;3.07;0.90;;;;;;;6.65;100.00;100499.97;5024273;28;20635;-75
2020/12/14 02:30:52;;;;;;;3.10;0.50;;;;;;;6.54;100.00;100496.16;4942722;29;20217;-75
2020/12/14 02:33:17;;;;;;;7.10;0.60;;;;;;;6.64;100.00;100490.38;4947960;29;20521;-75
2020/12/14 02:35:45;;;;;;;2.97;0.80;;;;;;;6.53;100.00;100495.38;4945404;28;20202;-74
2020/12/14 02:38:11;;;;;;;3.00;0.60;;;;;;;6.53;100.00;100494.59;4946830;28;20191;-74
2020/12/14 02:40:36;;;;;;;2.73;0.97;;;;;;;6.62;100.00;100495.28;4932648;29;21258;-75
2020/12/14 02:43:02;;;;;;;2.43;0.50;;;;;;;6.42;100.00;100488.09;4933039;29;20302;-75
2020/12/14 02:45:27;;;;;;;1.93;0.30;;;;;;;6.53;100.00;100489.22;4949211;28;20194;-75
2020/12/14 02:47:53;;;;;;;2.63;0.60;;;;;;;6.54;100.00;100485.47;4948839;29;20240;-74
2020/12/14 02:50:19;;;;;;;2.30;0.70;;;;;;;6.48;100.00;100498.28;4949115;28;20217;-75
2020/12/14 02:52:44;;;;;;;2.37;0.60;;;;;;;6.27;100.00;100486.84;4925957;29;20202;-74
2020/12/14 02:55:10;;;;;;;2.20;0.37;;;;;;;6.26;100.00;100477.25;4949087;29;21346;-74
2020/12/14 02:57:35;;;;;;;2.53;0.40;;;;;;;6.18;100.00;100464.75;4947978;29;20194;-76
2020/12/14 03:00:01;;;;;;;4.30;1.40;;;;;;;6.22;100.00;100460.31;4937873;28;20210;-75
2020/12/14 03:02:27;;;;;;;1.93;0.60;;;;;;;6.33;100.00;100456.88;4942896;29;20227;-74
2020/12/14 03:04:52;;;;;;;4.80;0.73;;;;;;;6.39;100.00;100449.44;4935350;29;20529;-74
2020/12/14 03:07:18;;;;;;;1.67;0.40;;;;;;;6.44;100.00;100459.13;4954567;28;20198;-75
2020/12/14 03:09:43;;;;;;;2.07;0.47;;;;;;;6.40;100.00;100467.03;5029910;28;20225;-74
2020/12/14 03:12:09;;;;;;;2.73;0.40;;;;;;;6.29;100.00;100463.25;5027686;28;20199;-75
2020/12/14 03:14:34;;;;;;;2.87;0.70;;;;;;;6.41;100.00;100457.13;5027637;28;20188;-74
2020/12/14 03:17:01;;;;;;;1.87;0.47;;;;;;;6.27;100.00;100460.88;5026577;28;20187;-75
2020/12/14 03:19:26;;;;;;;2.63;0.50;;;;;;;6.36;100.00;100452.78;5025469;28;20188;-75
2020/12/14 03:21:52;;;;;;;3.57;0.70;;;;;;;6.34;100.00;100460.34;5020412;28;20871;-76
2020/12/14 03:24:17;;;;;;;4.23;1.10;;;;;;;6.46;100.00;100449.69;5028447;28;20234;-74
2020/12/14 03:26:43;;;;;;;3.50;1.00;;;;;;;6.48;100.00;100455.47;5031140;28;20192;-75
2020/12/14 03:29:09;;;;;;;2.80;0.73;;;;;;;6.27;100.00;100460.13;5028274;28;20559;-74
2020/12/14 03:31:36;;;;;;;2.77;0.57;;;;;;;6.37;100.00;100457.00;5026922;28;20242;-76
2020/12/14 03:34:02;;;;;;;3.50;0.60;;;;;;;6.33;100.00;100458.75;5034048;28;20671;-75
2020/12/14 03:36:27;;;;;;;2.40;0.63;;;;;;;6.24;100.00;100450.84;5030699;28;20475;-75
2020/12/14 03:38:54;;;;;;;1.90;0.40;;;;;;;6.30;100.00;100452.22;5030504;28;20206;-74
2020/12/14 03:41:21;;;;;;;3.37;0.60;;;;;;;6.38;100.00;100446.00;5032027;28;20685;-77
2020/12/14 03:43:47;;;;;;;3.23;0.80;;;;;;;6.42;100.00;100451.44;5032509;28;20425;-74
2020/12/14 03:46:17;;;;;;;2.37;0.60;;;;;;;6.16;100.00;100443.69;5032333;28;20442;-74
2020/12/14 03:48:43;;;;;;;3.10;0.47;;;;;;;6.27;100.00;100449.41;5019490;28;20443;-77
2020/12/14 03:51:13;;;;;;;1.93;0.30;;;;;;;6.23;100.00;100449.28;5034602;23;20573;-74
2020/12/14 03:53:38;;;;;;;1.70;0.40;;;;;;;6.17;100.00;100442.59;5009529;28;20180;-76
2020/12/14 03:56:04;;;;;;;2.07;0.47;;;;;;;6.23;100.00;100443.16;5023157;28;20844;-75
2020/12/14 03:58:31;;;;;;;2.03;0.40;;;;;;;6.29;100.00;100426.56;5007262;28;20311;-76
2020/12/14 04:00:56;;;;;;;2.23;0.33;;;;;;;6.33;100.00;100432.03;5002874;28;20287;-76
2020/12/14 04:03:23;;;;;;;1.83;0.30;;;;;;;6.29;100.00;100415.88;5022062;28;20481;-77
2020/12/14 04:05:49;;;;;;;1.90;0.23;;;;;;;6.25;100.00;100409.63;5020535;28;20215;-77
2020/12/14 04:08:15;;;;;;;2.00;0.30;;;;;;;6.38;100.00;100410.44;5021426;28;20510;-76
2020/12/14 04:10:40;;;;;;;1.40;0.30;;;;;;;6.35;100.00;100409.19;5020239;28;20195;-75
2020/12/14 04:13:06;;;;;;;3.03;0.63;;;;;;;6.18;100.00;100409.41;5026098;28;20511;-76
2020/12/14 04:15:51;;;;;;;2.50;0.80;;;;;;;6.27;100.00;100420.00;5018791;28;20181;-75
2020/12/14 04:18:17;;;;;;;3.10;0.30;;;;;;;6.18;100.00;100424.66;4972745;28;20203;-77
2020/12/14 04:20:42;;;;;;;3.53;0.80;;;;;;;6.06;100.00;100428.06;4970572;28;20449;-76
2020/12/14 04:23:08;;;;;;;2.03;0.50;;;;;;;6.05;100.00;100425.72;4965109;28;20652;-75
2020/12/14 04:25:33;;;;;;;2.97;0.63;;;;;;;6.26;100.00;100423.78;4970207;28;20186;-75
2020/12/14 04:28:00;;;;;;;1.83;0.50;;;;;;;6.26;100.00;100426.44;4970769;28;20186;-74
2020/12/14 04:30:28;;;;;;;2.63;0.30;;;;;;;6.34;100.00;100436.28;4970110;28;20202;-75
2020/12/14 04:32:56;;;;;;;2.60;0.77;;;;;;;6.45;100.00;100428.59;4965951;28;20459;-74
2020/12/14 04:35:22;;;;;;;1.70;0.50;;;;;;;6.36;100.00;100426.81;4955752;28;20512;-74
2020/12/14 04:37:48;;;;;;;2.40;0.40;;;;;;;6.15;100.00;100441.34;4969586;28;20515;-75
2020/12/14 04:40:14;;;;;;;2.77;0.57;;;;;;;6.25;100.00;100443.63;4968951;28;20277;-75
2020/12/14 04:42:40;;;;;;;2.60;0.53;;;;;;;6.31;100.00;100447.63;4968836;28;20579;-75
2020/12/14 04:45:08;;;;;;;2.17;0.43;;;;;;;6.33;100.00;100458.75;4970944;28;20185;-75
2020/12/14 04:47:34;;;;;;;2.03;0.57;;;;;;;6.36;100.00;100450.09;4979442;28;21162;-75
2020/12/14 04:50:01;;;;;;;1.70;0.50;;;;;;;6.44;100.00;100449.22;4956103;28;20977;-75
2020/12/14 04:52:27;;;;;;;2.50;0.53;;;;;;;6.36;100.00;100440.19;4952899;28;20473;-75
2020/12/14 04:54:53;;;;;;;2.00;0.30;;;;;;;6.26;100.00;100435.25;4985097;28;20455;-74
2020/12/14 04:57:21;;;;;;;2.67;0.50;;;;;;;6.09;100.00;100445.34;5010848;28;20176;-74
2020/12/14 04:59:49;;;;;;;1.90;0.30;;;;;;;6.35;100.00;100432.47;5006456;28;20808;-75
2020/12/14 05:02:14;;;;;;;2.30;0.37;;;;;;;6.36;100.00;100421.47;5013755;28;20537;-75
2020/12/14 05:04:40;;;;;;;2.07;0.47;;;;;;;6.41;100.00;100423.13;5016258;28;20443;-75
2020/12/14 05:07:06;;;;;;;2.10;0.30;;;;;;;6.40;100.00;100429.59;5012507;28;20304;-75
2020/12/14 05:09:32;;;;;;;2.67;0.60;;;;;;;6.39;100.00;100433.38;4995944;28;20288;-75
2020/12/14 05:11:58;;;;;;;2.50;0.30;;;;;;;6.26;100.00;100419.22;5015624;28;20462;-74
2020/12/14 05:14:30;;;;;;;2.63;0.73;;;;;;;6.37;100.00;100422.22;5009975;28;20533;-75
2020/12/14 05:16:55;;;;;;;2.73;0.63;;;;;;;6.48;100.00;100417.25;5003557;28;20494;-75
2020/12/14 05:19:28;;;;;;;3.10;0.50;;;;;;;6.33;100.00;100416.78;5009076;28;20462;-74
2020/12/14 05:21:58;;;;;;;2.60;0.70;;;;;;;6.32;100.00;100399.19;5014051;28;20212;-74
2020/12/14 05:24:29;;;;;;;1.87;0.30;;;;;;;6.17;100.00;100415.09;5011760;28;20962;-74
2020/12/14 05:26:56;;;;;;;2.90;0.60;;;;;;;6.29;100.00;100409.75;5020401;28;20451;-75
2020/12/14 05:29:28;;;;;;;1.90;0.30;;;;;;;6.32;100.00;100396.50;5014657;28;20937;-75
2020/12/14 05:32:04;;;;;;;1.93;0.30;;;;;;;6.32;100.00;100393.03;5019485;28;20539;-76
2020/12/14 05:34:32;;;;;;;2.23;0.40;;;;;;;6.42;100.00;100397.97;5015491;28;20451;-74
2020/12/14 05:36:59;;;;;;;2.90;0.87;;;;;;;6.42;100.00;100391.81;5006726;28;20432;-74
2020/12/14 05:39:27;;;;;;;1.50;0.30;;;;;;;6.34;100.00;100398.84;5012066;28;20447;-75
2020/12/14 05:41:53;;;;;;;2.27;0.30;;;;;;;6.50;100.00;100385.59;5003908;28;20558;-74
2020/12/14 05:44:28;;;;;;;2.30;0.40;;;;;;;6.46;100.00;100393.50;5009672;28;20442;-74
2020/12/14 05:46:53;;;;;;;1.90;0.50;;;;;;;6.46;100.00;100387.38;5008024;28;20443;-77
2020/12/14 05:49:19;;;;;;;1.60;0.30;;;;;;;6.38;100.00;100383.69;5003640;28;20511;-75
2020/12/14 05:51:45;;;;;;;2.67;0.53;;;;;;;6.12;100.00;100383.19;5012161;28;20562;-74
2020/12/14 05:54:12;;;;;;;1.93;0.43;;;;;;;6.30;100.00;100384.56;5004150;28;20271;-78
2020/12/14 05:56:38;;;;;;;2.27;0.50;;;;;;;6.27;100.00;100377.22;4995639;28;20447;-77
2020/12/14 05:59:04;;;;;;;2.50;0.30;;;;;;;6.34;100.00;100377.44;5003625;28;20454;-74
2020/12/14 06:01:29;;;;;;;2.40;0.60;;;;;;;6.33;100.00;100391.91;5001120;28;20748;-74
2020/12/14 06:03:56;;;;;;;2.67;0.43;;;;;;;6.36;100.00;100373.34;4988009;28;20193;-74
2020/12/14 06:06:22;;;;;;;1.40;0.40;;;;;;;6.29;100.00;100375.00;5001815;28;20869;-75
2020/12/14 06:08:47;;;;;;;2.60;0.50;;;;;;;6.37;100.00;100384.78;5008566;28;20461;-74
2020/12/14 06:11:13;;;;;;;2.30;0.30;;;;;;;6.56;100.00;100381.59;5004653;28;20205;-75
2020/12/14 06:14:02;;;;;;;2.43;0.37;;;;;;;6.44;100.00;100384.25;5008019;28;20215;-76
2020/12/14 06:16:35;;;;;;;1.63;0.40;;;;;;;6.49;100.00;100387.50;4996282;28;20443;-74
2020/12/14 06:19:00;;;;;;;1.73;0.33;;;;;;;6.36;100.00;100389.38;5017531;28;20496;-75
2020/12/14 06:21:39;;;;;;;2.67;0.50;;;;;;;6.36;100.00;100389.38;5007416;28;20475;-75
2020/12/14 06:24:06;;;;;;;2.80;1.03;;;;;;;6.51;100.00;100387.94;5000433;28;20589;-74
2020/12/14 06:26:36;;;;;;;2.10;0.50;;;;;;;6.53;100.00;100393.72;4999824;28;20436;-74
2020/12/14 06:29:04;;;;;;;2.20;0.60;;;;;;;6.49;100.00;100400.84;5001966;28;20451;-75
2020/12/14 06:31:33;;;;;;;1.67;0.40;;;;;;;6.26;100.00;100394.38;5001554;28;20980;-74
2020/12/14 06:34:02;;;;;;;2.30;0.33;;;;;;;6.44;100.00;100385.03;5004405;28;20185;-77
2020/12/14 06:36:37;;;;;;;2.53;0.50;;;;;;;6.47;100.00;100379.00;5002509;28;20461;-75
2020/12/14 06:39:03;;;;;;;3.10;0.90;;;;;;;6.47;100.00;100378.22;4996534;28;21097;-74
2020/12/14 06:41:30;;;;;;;2.93;0.47;;;;;;;6.41;100.00;100391.03;5003364;28;20468;-74
2020/12/14 06:44:07;;;;;;;1.77;0.30;;;;;;;6.28;100.00;100381.44;5002633;28;20440;-74
2020/12/14 06:46:33;;;;;;;2.00;0.30;;;;;;;6.54;100.00;100381.94;4999199;28;20436;-74
2020/12/14 06:49:00;;;;;;;2.30;0.47;;;;;;;6.51;100.00;100387.16;5010296;28;20513;-75
2020/12/14 06:51:45;;;;;;;1.73;0.53;;;;;;;6.62;100.00;100381.03;5010207;28;20582;-78
2020/12/14 06:54:11;;;;;;;3.10;0.73;;;;;;;6.34;100.00;100370.22;5010600;28;21151;-74
2020/12/14 06:56:40;;;;;;;1.50;0.20;;;;;;;6.50;100.00;100374.91;5001999;28;20436;-77
2020/12/14 06:59:28;;;;;;;2.00;0.40;;;;;;;6.70;100.00;100364.06;4996366;28;20180;-75
2020/12/14 07:02:14;;;;;;;1.70;0.20;;;;;;;6.62;100.00;100358.84;4999807;28;20462;-74
2020/12/14 07:04:41;;;;;;;2.43;0.57;;;;;;;6.54;100.00;100365.09;4999574;28;20463;-74
2020/12/14 07:07:07;;;;;;;2.87;0.60;;;;;;;6.49;100.00;100368.75;5002679;28;20487;-76
2020/12/14 07:09:33;;;;;;;1.97;0.40;;;;;;;6.58;100.00;100369.44;5013179;28;20459;-78
2020/12/14 07:12:17;;;;;;;3.00;0.63;;;;;;;6.35;100.00;100363.75;4994054;28;20205;-76
2020/12/14 07:14:54;;;;;;;2.43;0.40;;;;;;;6.33;100.00;100362.50;4994804;28;20440;-75
2020/12/14 07:17:27;;;;;;;2.23;0.50;;;;;;;6.28;100.00;100358.19;5002649;28;20448;-75
2020/12/14 07:19:55;;;;;;;1.60;0.30;;;;;;;6.35;100.00;100369.09;4991411;28;21116;-74
2020/12/14 07:22:29;;;;;;;2.93;0.50;;;;;;;6.40;100.00;100362.75;5012053;28;20483;-74
2020/12/14 07:24:58;;;;;;;1.70;0.40;;;;;;;6.58;100.00;100358.72;5002032;28;20434;-76
2020/12/14 07:27:27;;;;;;;1.80;0.30;;;;;;;6.56;100.00;100349.50;5019028;28;20431;-74
2020/12/14 07:30:06;;;;;;;2.50;0.40;;;;;;;6.41;100.00;100360.88;5001686;28;20455;-76
2020/12/14 07:32:32;;;;;;;2.33;0.63;;;;;;;6.52;100.00;100364.66;5010799;28;20816;-75
2020/12/14 07:34:58;;;;;;;2.00;0.30;;;;;;;6.44;100.00;100360.97;5011630;28;20522;-75
2020/12/14 07:37:24;;;;;;;2.33;0.40;;;;;;;6.60;100.00;100353.81;5007167;28;20943;-75
2020/12/14 07:39:50;;;;;;;1.80;0.40;;;;;;;6.57;100.00;100362.53;5015369;28;20192;-75
2020/12/14 07:42:44;;;;;;;2.17;0.67;;;;;;;6.59;100.00;100354.16;5017477;28;20997;-78
2020/12/14 07:45:21;;;;;;;1.93;0.37;;;;;;;6.52;100.00;100352.06;5009562;28;20451;-74
2020/12/14 07:47:50;;;;;;;1.70;0.30;;;;;;;6.69;100.00;100357.19;5015126;28;20451;-74
2020/12/14 07:50:18;;;;;;;2.27;0.40;;;;;;;6.53;100.00;100366.19;5004058;28;20444;-76
2020/12/14 07:52:49;;;;;;;2.23;0.40;;;;;;;6.54;100.00;100367.78;4988427;28;20469;-75
2020/12/14 07:55:15;;;;;;;2.20;0.57;;;;;;;6.70;100.00;100364.06;5000079;28;22713;-74
2020/12/14 07:57:44;;;;;;;1.47;0.30;;;;;;;6.68;100.00;100365.56;5005669;28;20434;-74
2020/12/14 08:00:13;;;;;;;1.93;0.30;;;;;;;6.64;100.00;100365.41;5001065;28;20508;-77
2020/12/14 08:02:40;;;;;;;1.50;0.27;;;;;;;6.69;100.00;100354.50;5001788;28;20486;-74
2020/12/14 08:05:09;;;;;;;2.00;0.30;;;;;;;6.83;100.00;100362.94;4997295;28;20452;-75
2020/12/14 08:07:42;;;;;;;1.87;0.70;;;;;;;6.86;100.00;100370.31;5006132;28;20966;-75
2020/12/14 08:10:09;;;;;;;1.57;0.20;;;;;;;6.70;100.00;100377.47;4991558;28;20447;-75
2020/12/14 08:12:42;;;;;;;2.07;0.37;;;;;;;6.74;100.00;100374.88;5013407;28;20466;-75
2020/12/14 08:15:14;;;;;;;2.13;0.50;;;;;;;6.59;100.00;100387.06;5011235;28;20454;-75
2020/12/14 08:17:41;;;;;;;1.50;0.20;;;;;;;6.58;100.00;100390.06;4998626;28;20471;-75
2020/12/14 08:20:26;;;;;;;2.13;0.20;;;;;;;6.61;100.00;100389.38;5013434;28;20451;-75
2020/12/14 08:22:53;;;;;;;1.90;0.40;;;;;;;6.72;100.00;100390.50;5009034;28;20529;-75
2020/12/14 08:25:23;;;;;;;1.80;0.40;;;;;;;6.75;100.00;100381.81;5009570;28;20851;-75
2020/12/14 08:27:59;;;;;;;1.53;0.27;;;;;;;6.62;100.00;100394.41;5013523;28;20881;-75
2020/12/14 08:30:26;;;;;;;1.60;0.40;;;;;;;6.76;100.00;100381.47;5004932;28;20490;-77
2020/12/14 08:33:12;;;;;;;2.17;0.40;;;;;;;6.78;100.00;100386.47;5017674;28;20812;-76
2020/12/14 08:35:49;;;;;;;1.93;0.40;;;;;;;6.84;100.00;100379.78;5012616;28;20461;-75
2020/12/14 08:38:17;;;;;;;1.93;0.40;;;;;;;6.92;100.00;100360.16;5018883;28;20443;-75
2020/12/14 08:41:01;;;;;;;2.23;0.20;;;;;;;7.09;100.00;100358.00;5001294;28;20481;-75
2020/12/14 08:43:28;;;;;;;1.50;0.27;;;;;;;7.04;100.00;100373.53;4998907;28;20484;-76
2020/12/14 08:46:01;;;;;;;2.37;0.50;;;;;;;7.09;100.00;100352.66;5001875;28;21083;-75
2020/12/14 08:48:32;;;;;;;2.43;0.60;;;;;;;7.11;100.00;100350.41;5008135;28;20866;-75
2020/12/14 08:51:12;;;;;;;1.37;0.17;;;;;;;7.10;100.00;100348.84;5009667;28;20801;-75
2020/12/14 08:53:38;;;;;;;3.50;0.40;;;;;;;6.98;100.00;100354.25;5001138;28;20983;-74
2020/12/14 08:56:07;;;;;;;1.63;0.37;;;;;;;7.00;100.00;100343.97;5003380;28;20843;-76
2020/12/14 08:58:32;;;;;;;1.40;0.13;;;;;;;7.01;100.00;100344.75;5016271;28;20434;-74
2020/12/14 09:01:09;;;;;;;1.30;0.20;;;;;;;7.04;100.00;100347.53;5009032;28;21995;-74
2020/12/14 09:03:53;;;;;;;1.70;0.30;;;;;;;7.13;100.00;100348.19;5011601;28;20184;-74
2020/12/14 09:06:32;;;;;;;1.87;0.50;;;;;;;6.96;100.00;100343.09;5002740;28;20447;-75
2020/12/14 09:09:04;;;;;;;1.50;0.40;;;;;;;6.99;100.00;100355.00;5017742;28;20443;-74
2020/12/14 09:11:31;;;;;;;1.50;0.30;;;;;;;7.08;100.00;100347.66;5014990;28;20589;-74
2020/12/14 09:14:06;;;;;;;1.77;0.30;;;;;;;7.10;100.00;100332.03;5010386;28;20430;-74
2020/12/14 09:16:33;;;;;;;1.50;0.20;;;;;;;7.09;100.00;100351.88;5012275;28;20503;-74
2020/12/14 09:19:00;;;;;;;1.60;0.30;;;;;;;7.27;100.00;100334.41;5016784;28;20453;-73
2020/12/14 09:21:25;;;;;;;1.53;0.23;;;;;;;7.13;100.00;100336.69;5013878;28;20474;-73
2020/12/14 09:24:10;;;;;;;2.40;0.43;;;;;;;7.09;100.00;100336.59;5017804;28;20451;-74
2020/12/14 09:26:35;;;;;;;1.80;0.37;;;;;;;7.11;100.00;100331.69;4995974;28;20184;-74
2020/12/14 09:29:01;;;;;;;1.90;0.30;;;;;;;7.17;100.00;100326.84;5012665;28;20764;-73
2020/12/14 09:31:27;;;;;;;1.40;0.30;;;;;;;7.07;100.00;100336.16;5006510;28;20200;-75
2020/12/14 09:33:52;;;;;;;2.20;0.30;;;;;;;7.18;100.00;100329.19;5009467;28;20181;-73
2020/12/14 09:36:18;;;;;;;1.30;0.20;;;;;;;7.28;100.00;100331.41;5012692;28;20185;-74
2020/12/14 09:38:44;;;;;;;1.67;0.30;;;;;;;7.26;100.00;100330.94;5012678;28;20216;-73
2020/12/14 09:41:11;;;;;;;1.97;0.40;;;;;;;7.29;100.00;100338.31;5002397;28;20257;-76
2020/12/14 09:43:36;;;;;;;1.70;0.23;;;;;;;7.35;100.00;100328.16;5009541;28;20429;-74
2020/12/14 09:46:02;;;;;;;1.57;0.33;;;;;;;7.48;100.00;100326.19;5009489;28;20545;-73
2020/12/14 09:48:27;;;;;;;1.93;0.30;;;;;;;7.63;100.00;100328.09;5010307;28;20554;-74
2020/12/14 09:50:53;;;;;;;1.63;0.33;;;;;;;7.42;100.00;100330.22;5009890;28;20242;-75
2020/12/14 09:55:47;;;;;;;2.13;0.50;;;;;;;7.41;100.00;100324.09;4890789;29;20224;-75
2020/12/14 09:58:13;;;;;;;1.70;0.20;;;;;;;7.38;100.00;100326.66;4903894;29;21170;-75
2020/12/14 10:00:40;;;;;;;1.40;0.20;;;;;;;7.36;100.00;100324.34;4924039;29;20184;-75
2020/12/14 10:03:06;;;;;;;1.40;0.30;;;;;;;7.55;100.00;100319.09;4920321;29;20311;-75
2020/12/14 10:05:31;;;;;;;1.37;0.20;;;;;;;7.52;99.95;100324.38;4935035;29;20509;-75
2020/12/14 10:07:57;;;;;;;2.47;0.40;;;;;;;7.57;99.96;100310.75;4958220;28;20201;-75
2020/12/14 10:10:22;;;;;;;1.37;0.10;;;;;;;7.59;100.00;100321.91;4945239;28;20278;-73
2020/12/14 10:12:48;;;;;;;1.50;0.33;;;;;;;7.33;100.00;100317.00;4943820;29;20189;-75
2020/12/14 10:15:13;;;;;;;2.17;0.53;;;;;;;7.45;100.00;100324.19;4951051;29;20238;-75
2020/12/14 10:17:39;;;;;;;1.63;0.30;;;;;;;7.64;100.00;100327.00;4953427;28;20205;-75
2020/12/14 10:20:06;;;;;;;3.20;0.47;;;;;;;7.62;100.00;100321.22;4943480;28;20322;-75
2020/12/14 10:22:33;;;;;;;2.17;0.40;;;;;;;7.51;100.00;100330.88;4943141;29;20297;-74
2020/12/14 10:24:59;;;;;;;1.67;0.33;;;;;;;7.50;100.00;100332.75;4948314;28;20470;-75
2020/12/14 10:27:25;;;;;;;1.37;0.20;;;;;;;7.30;100.00;100323.81;4947370;28;20473;-75
2020/12/14 10:29:50;;;;;;;1.40;0.20;;;;;;;7.28;100.00;100327.94;4940491;28;20450;-75
2020/12/14 10:32:16;;;;;;;1.63;0.20;;;;;;;7.14;100.00;100320.28;4947792;28;20193;-75
2020/12/14 10:34:42;;;;;;;2.00;0.40;;;;;;;7.37;100.00;100319.75;4944267;28;20330;-75
2020/12/14 10:37:07;;;;;;;1.50;0.20;;;;;;;7.17;100.00;100319.63;4944790;29;20533;-75
2020/12/14 10:39:33;;;;;;;1.90;0.40;;;;;;;7.21;100.00;100325.06;4942838;29;20182;-75
2020/12/14 10:41:58;;;;;;;1.50;0.20;;;;;;;7.19;100.00;100325.41;4929253;28;20804;-75
2020/12/14 10:44:24;;;;;;;1.43;0.23;;;;;;;7.17;100.00;100330.31;4944955;28;20202;-75
2020/12/14 10:46:49;;;;;;;1.97;0.20;;;;;;;7.35;100.00;100332.72;4945609;29;20229;-75
2020/12/14 10:49:16;;;;;;;1.40;0.20;;;;;;;7.29;100.00;100329.50;4940262;28;20194;-75
2020/12/14 10:51:47;;;;;;;1.80;0.30;;;;;;;7.09;100.00;100327.78;4942917;29;20599;-75
2020/12/14 10:54:13;;;;;;;2.33;0.40;;;;;;;7.19;100.00;100320.06;4940179;28;20478;-74
2020/12/14 10:56:38;;;;;;;1.70;0.10;;;;;;;7.26;100.00;100314.09;4950316;28;20457;-75
2020/12/14 10:59:04;;;;;;;1.80;0.37;;;;;;;7.30;100.00;100315.75;4948653;28;20438;-75
2020/12/14 11:01:29;;;;;;;1.70;0.40;;;;;;;7.44;100.00;100317.25;4945806;28;20284;-75
2020/12/14 11:03:57;;;;;;;2.10;0.40;;;;;;;7.43;100.00;100313.03;4949334;28;20209;-75
2020/12/14 11:06:48;;;;;;;1.43;0.20;;;;;;;7.43;100.00;100308.47;4929285;29;20202;-75
2020/12/14 11:09:14;;;;;;;1.37;0.23;;;;;;;7.09;100.00;100303.69;4869197;29;20470;-75
2020/12/14 11:11:40;;;;;;;1.47;0.30;;;;;;;7.04;100.00;100302.03;4870178;29;20457;-76
2020/12/14 11:14:05;;;;;;;1.53;0.30;;;;;;;7.01;100.00;100296.56;4871025;29;20585;-76
2020/12/14 11:16:32;;;;;;;1.37;0.20;;;;;;;7.01;100.00;100286.63;4870759;29;20219;-75
2020/12/14 11:19:01;;;;;;;1.40;0.17;;;;;;;7.15;100.00;100284.38;4875221;29;20197;-76
2020/12/14 11:21:26;;;;;;;1.57;0.30;;;;;;;7.16;100.00;100296.63;4869983;29;20485;-75
2020/12/14 11:23:52;;;;;;;1.40;0.20;;;;;;;7.11;100.00;100291.50;4853571;29;20489;-72
2020/12/14 11:26:18;;;;;;;1.30;0.10;;;;;;;6.98;100.00;100290.00;4870055;29;20205;-76
2020/12/14 11:28:43;;;;;;;1.60;0.20;;;;;;;7.01;100.00;100292.00;4870150;29;20269;-76
2020/12/14 11:31:09;;;;;;;1.40;0.20;;;;;;;6.99;100.00;100293.44;4868306;29;20285;-75